sensor_id;sensor_type;location;lat;lon;timestamp;P1;durP1;ratioP1;P2;durP2;ratioP2
49488;SDS011;35382;51.484;11.476;2024-03-29T00:00:46;4.80;;;2.22;;
49488;SDS011;35382;51.484;11.476;2024-03-29T00:03:11;4.18;;;1.83;;
49488;SDS011;35382;51.484;11.476;2024-03-29T00:05:37;4.78;;;2.40;;
49488;SDS011;35382;51.484;11.476;2024-03-29T00:08:03;5.45;;;2.35;;
49488;SDS011;35382;51.484;11.476;2024-03-29T00:10:29;4.65;;;2.38;;
49488;SDS011;35382;51.484;11.476;2024-03-29T00:12:54;4.63;;;2.20;;
49488;SDS011;35382;51.484;11.476;2024-03-29T00:15:20;7.60;;;2.65;;
49488;SDS011;35382;51.484;11.476;2024-03-29T00:17:45;9.82;;;6.18;;
49488;SDS011;35382;51.484;11.476;2024-03-29T00:20:11;11.20;;;3.78;;
49488;SDS011;35382;51.484;11.476;2024-03-29T00:22:36;6.00;;;3.03;;
49488;SDS011;35382;51.484;11.476;2024-03-29T00:25:02;8.25;;;2.80;;
49488;SDS011;35382;51.484;11.476;2024-03-29T00:27:27;6.25;;;3.42;;
49488;SDS011;35382;51.484;11.476;2024-03-29T00:29:53;6.97;;;3.15;;
49488;SDS011;35382;51.484;11.476;2024-03-29T00:32:18;5.53;;;3.17;;
49488;SDS011;35382;51.484;11.476;2024-03-29T00:34:44;5.82;;;3.13;;
49488;SDS011;35382;51.484;11.476;2024-03-29T00:37:10;8.35;;;3.75;;
49488;SDS011;35382;51.484;11.476;2024-03-29T00:39:35;6.72;;;3.72;;
49488;SDS011;35382;51.484;11.476;2024-03-29T00:42:00;5.90;;;3.00;;
49488;SDS011;35382;51.484;11.476;2024-03-29T00:44:26;7.47;;;3.50;;
49488;SDS011;35382;51.484;11.476;2024-03-29T00:46:51;6.63;;;3.30;;
49488;SDS011;35382;51.484;11.476;2024-03-29T00:49:16;6.63;;;3.50;;
49488;SDS011;35382;51.484;11.476;2024-03-29T00:51:44;6.50;;;3.30;;
49488;SDS011;35382;51.484;11.476;2024-03-29T00:54:10;8.25;;;3.50;;
49488;SDS011;35382;51.484;11.476;2024-03-29T00:56:35;6.10;;;3.30;;
49488;SDS011;35382;51.484;11.476;2024-03-29T00:59:00;5.88;;;2.90;;
49488;SDS011;35382;51.484;11.476;2024-03-29T01:01:26;5.57;;;2.70;;
49488;SDS011;35382;51.484;11.476;2024-03-29T01:03:51;4.95;;;2.63;;
49488;SDS011;35382;51.484;11.476;2024-03-29T01:06:16;7.72;;;2.83;;
49488;SDS011;35382;51.484;11.476;2024-03-29T01:08:42;7.03;;;2.22;;
49488;SDS011;35382;51.484;11.476;2024-03-29T01:11:07;5.47;;;2.20;;
49488;SDS011;35382;51.484;11.476;2024-03-29T01:13:32;4.47;;;1.90;;
49488;SDS011;35382;51.484;11.476;2024-03-29T01:15:58;4.40;;;1.67;;
49488;SDS011;35382;51.484;11.476;2024-03-29T01:18:23;5.28;;;1.70;;
49488;SDS011;35382;51.484;11.476;2024-03-29T01:20:48;5.47;;;1.70;;
49488;SDS011;35382;51.484;11.476;2024-03-29T01:23:14;5.72;;;1.80;;
49488;SDS011;35382;51.484;11.476;2024-03-29T01:25:39;3.95;;;1.73;;
49488;SDS011;35382;51.484;11.476;2024-03-29T01:28:04;4.25;;;1.92;;
49488;SDS011;35382;51.484;11.476;2024-03-29T01:30:30;3.17;;;1.70;;
49488;SDS011;35382;51.484;11.476;2024-03-29T01:32:55;5.82;;;2.20;;
49488;SDS011;35382;51.484;11.476;2024-03-29T01:35:21;5.78;;;2.15;;
49488;SDS011;35382;51.484;11.476;2024-03-29T01:37:46;6.05;;;2.35;;
49488;SDS011;35382;51.484;11.476;2024-03-29T01:40:11;4.72;;;2.30;;
49488;SDS011;35382;51.484;11.476;2024-03-29T01:42:37;4.38;;;2.00;;
49488;SDS011;35382;51.484;11.476;2024-03-29T01:45:02;6.95;;;2.97;;
49488;SDS011;35382;51.484;11.476;2024-03-29T01:47:28;6.47;;;2.92;;
49488;SDS011;35382;51.484;11.476;2024-03-29T01:49:53;5.35;;;2.40;;
49488;SDS011;35382;51.484;11.476;2024-03-29T01:52:19;5.00;;;2.60;;
49488;SDS011;35382;51.484;11.476;2024-03-29T01:54:45;6.15;;;2.67;;
49488;SDS011;35382;51.484;11.476;2024-03-29T01:57:12;7.55;;;2.70;;
49488;SDS011;35382;51.484;11.476;2024-03-29T01:59:38;8.85;;;3.28;;
49488;SDS011;35382;51.484;11.476;2024-03-29T02:02:05;5.85;;;3.00;;
49488;SDS011;35382;51.484;11.476;2024-03-29T02:04:32;8.63;;;3.22;;
49488;SDS011;35382;51.484;11.476;2024-03-29T02:06:57;8.25;;;3.50;;
49488;SDS011;35382;51.484;11.476;2024-03-29T02:09:23;8.52;;;3.10;;
49488;SDS011;35382;51.484;11.476;2024-03-29T02:11:48;9.27;;;3.55;;
49488;SDS011;35382;51.484;11.476;2024-03-29T02:14:13;8.30;;;3.40;;
49488;SDS011;35382;51.484;11.476;2024-03-29T02:16:39;5.93;;;2.83;;
49488;SDS011;35382;51.484;11.476;2024-03-29T02:19:04;5.10;;;3.00;;
49488;SDS011;35382;51.484;11.476;2024-03-29T02:21:30;6.93;;;2.70;;
49488;SDS011;35382;51.484;11.476;2024-03-29T02:23:59;6.95;;;2.85;;
49488;SDS011;35382;51.484;11.476;2024-03-29T02:26:25;5.82;;;2.92;;
49488;SDS011;35382;51.484;11.476;2024-03-29T02:28:51;9.90;;;2.80;;
49488;SDS011;35382;51.484;11.476;2024-03-29T02:31:16;7.10;;;3.20;;
49488;SDS011;35382;51.484;11.476;2024-03-29T02:33:41;8.43;;;3.10;;
49488;SDS011;35382;51.484;11.476;2024-03-29T02:36:07;7.70;;;3.28;;
49488;SDS011;35382;51.484;11.476;2024-03-29T02:38:32;5.47;;;2.90;;
49488;SDS011;35382;51.484;11.476;2024-03-29T02:40:58;9.43;;;2.85;;
49488;SDS011;35382;51.484;11.476;2024-03-29T02:43:23;5.03;;;2.60;;
49488;SDS011;35382;51.484;11.476;2024-03-29T02:45:51;5.15;;;2.67;;
49488;SDS011;35382;51.484;11.476;2024-03-29T02:48:16;9.27;;;3.42;;
49488;SDS011;35382;51.484;11.476;2024-03-29T02:50:41;3.88;;;1.90;;
49488;SDS011;35382;51.484;11.476;2024-03-29T02:53:07;4.70;;;1.92;;
49488;SDS011;35382;51.484;11.476;2024-03-29T02:55:32;5.05;;;1.75;;
49488;SDS011;35382;51.484;11.476;2024-03-29T02:57:57;4.75;;;2.00;;
49488;SDS011;35382;51.484;11.476;2024-03-29T03:00:25;3.58;;;1.83;;
49488;SDS011;35382;51.484;11.476;2024-03-29T03:02:51;5.47;;;2.00;;
49488;SDS011;35382;51.484;11.476;2024-03-29T03:05:16;5.30;;;1.98;;
49488;SDS011;35382;51.484;11.476;2024-03-29T03:07:42;3.92;;;1.85;;
49488;SDS011;35382;51.484;11.476;2024-03-29T03:10:07;4.93;;;2.00;;
49488;SDS011;35382;51.484;11.476;2024-03-29T03:12:32;4.72;;;1.60;;
49488;SDS011;35382;51.484;11.476;2024-03-29T03:14:58;7.43;;;2.40;;
49488;SDS011;35382;51.484;11.476;2024-03-29T03:17:23;4.28;;;1.73;;
49488;SDS011;35382;51.484;11.476;2024-03-29T03:19:50;5.53;;;1.90;;
49488;SDS011;35382;51.484;11.476;2024-03-29T03:22:17;4.03;;;1.63;;
49488;SDS011;35382;51.484;11.476;2024-03-29T03:24:42;4.18;;;1.75;;
49488;SDS011;35382;51.484;11.476;2024-03-29T03:27:07;4.53;;;1.60;;
49488;SDS011;35382;51.484;11.476;2024-03-29T03:29:33;3.63;;;1.55;;
49488;SDS011;35382;51.484;11.476;2024-03-29T03:31:58;7.45;;;1.50;;
49488;SDS011;35382;51.484;11.476;2024-03-29T03:34:24;2.88;;;1.30;;
49488;SDS011;35382;51.484;11.476;2024-03-29T03:36:49;2.72;;;1.15;;
49488;SDS011;35382;51.484;11.476;2024-03-29T03:39:15;4.78;;;1.20;;
49488;SDS011;35382;51.484;11.476;2024-03-29T03:41:40;4.97;;;1.20;;
49488;SDS011;35382;51.484;11.476;2024-03-29T03:44:05;3.40;;;1.20;;
49488;SDS011;35382;51.484;11.476;2024-03-29T03:46:31;7.50;;;1.20;;
49488;SDS011;35382;51.484;11.476;2024-03-29T03:48:56;3.35;;;1.20;;
49488;SDS011;35382;51.484;11.476;2024-03-29T03:51:21;5.00;;;0.98;;
49488;SDS011;35382;51.484;11.476;2024-03-29T03:53:47;4.00;;;1.45;;
49488;SDS011;35382;51.484;11.476;2024-03-29T03:56:12;6.90;;;1.05;;
49488;SDS011;35382;51.484;11.476;2024-03-29T03:58:37;1.95;;;0.80;;
49488;SDS011;35382;51.484;11.476;2024-03-29T04:01:03;3.60;;;1.17;;
49488;SDS011;35382;51.484;11.476;2024-03-29T04:03:29;4.40;;;1.37;;
49488;SDS011;35382;51.484;11.476;2024-03-29T04:05:55;4.45;;;1.10;;
49488;SDS011;35382;51.484;11.476;2024-03-29T04:08:20;4.22;;;0.95;;
49488;SDS011;35382;51.484;11.476;2024-03-29T04:10:45;1.58;;;0.68;;
49488;SDS011;35382;51.484;11.476;2024-03-29T04:13:11;2.70;;;0.90;;
49488;SDS011;35382;51.484;11.476;2024-03-29T04:15:36;3.65;;;0.80;;
49488;SDS011;35382;51.484;11.476;2024-03-29T04:18:01;3.85;;;1.23;;
49488;SDS011;35382;51.484;11.476;2024-03-29T04:20:27;2.60;;;1.10;;
49488;SDS011;35382;51.484;11.476;2024-03-29T04:22:52;3.78;;;1.05;;
49488;SDS011;35382;51.484;11.476;2024-03-29T04:25:17;2.88;;;0.80;;
49488;SDS011;35382;51.484;11.476;2024-03-29T04:27:43;5.05;;;0.93;;
49488;SDS011;35382;51.484;11.476;2024-03-29T04:30:08;3.42;;;1.38;;
49488;SDS011;35382;51.484;11.476;2024-03-29T04:32:34;5.85;;;1.00;;
49488;SDS011;35382;51.484;11.476;2024-03-29T04:34:59;2.13;;;0.57;;
49488;SDS011;35382;51.484;11.476;2024-03-29T04:37:24;3.42;;;1.17;;
49488;SDS011;35382;51.484;11.476;2024-03-29T04:39:52;2.90;;;0.90;;
49488;SDS011;35382;51.484;11.476;2024-03-29T04:42:17;1.88;;;0.68;;
49488;SDS011;35382;51.484;11.476;2024-03-29T04:44:42;5.22;;;1.08;;
49488;SDS011;35382;51.484;11.476;2024-03-29T04:47:08;2.25;;;0.80;;
49488;SDS011;35382;51.484;11.476;2024-03-29T04:49:33;5.15;;;0.98;;
49488;SDS011;35382;51.484;11.476;2024-03-29T04:52:00;4.18;;;0.95;;
49488;SDS011;35382;51.484;11.476;2024-03-29T04:54:26;2.75;;;1.02;;
49488;SDS011;35382;51.484;11.476;2024-03-29T04:56:52;3.03;;;0.93;;
49488;SDS011;35382;51.484;11.476;2024-03-29T04:59:20;2.80;;;1.00;;
49488;SDS011;35382;51.484;11.476;2024-03-29T05:01:48;3.00;;;0.93;;
49488;SDS011;35382;51.484;11.476;2024-03-29T05:04:14;7.47;;;1.15;;
49488;SDS011;35382;51.484;11.476;2024-03-29T05:06:39;1.90;;;0.80;;
49488;SDS011;35382;51.484;11.476;2024-03-29T05:09:05;3.60;;;1.20;;
49488;SDS011;35382;51.484;11.476;2024-03-29T05:11:30;4.53;;;1.02;;
49488;SDS011;35382;51.484;11.476;2024-03-29T05:13:55;4.82;;;1.30;;
49488;SDS011;35382;51.484;11.476;2024-03-29T05:16:21;3.17;;;1.20;;
49488;SDS011;35382;51.484;11.476;2024-03-29T05:18:46;3.47;;;1.00;;
49488;SDS011;35382;51.484;11.476;2024-03-29T05:21:11;2.40;;;0.88;;
49488;SDS011;35382;51.484;11.476;2024-03-29T05:23:37;2.45;;;0.90;;
49488;SDS011;35382;51.484;11.476;2024-03-29T05:26:02;2.25;;;1.00;;
49488;SDS011;35382;51.484;11.476;2024-03-29T05:28:29;2.50;;;0.98;;
49488;SDS011;35382;51.484;11.476;2024-03-29T05:30:55;3.45;;;0.93;;
49488;SDS011;35382;51.484;11.476;2024-03-29T05:33:20;2.97;;;1.05;;
49488;SDS011;35382;51.484;11.476;2024-03-29T05:35:45;2.25;;;0.77;;
49488;SDS011;35382;51.484;11.476;2024-03-29T05:38:11;1.63;;;0.90;;
49488;SDS011;35382;51.484;11.476;2024-03-29T05:40:36;4.90;;;1.30;;
49488;SDS011;35382;51.484;11.476;2024-03-29T05:43:02;3.13;;;1.30;;
49488;SDS011;35382;51.484;11.476;2024-03-29T05:45:28;4.60;;;1.20;;
49488;SDS011;35382;51.484;11.476;2024-03-29T05:47:54;3.78;;;1.02;;
49488;SDS011;35382;51.484;11.476;2024-03-29T05:50:21;2.58;;;0.95;;
49488;SDS011;35382;51.484;11.476;2024-03-29T05:52:48;2.35;;;0.90;;
49488;SDS011;35382;51.484;11.476;2024-03-29T05:55:13;3.88;;;1.60;;
49488;SDS011;35382;51.484;11.476;2024-03-29T05:57:39;2.00;;;1.30;;
49488;SDS011;35382;51.484;11.476;2024-03-29T06:00:04;2.97;;;1.30;;
49488;SDS011;35382;51.484;11.476;2024-03-29T06:02:31;3.95;;;0.95;;
49488;SDS011;35382;51.484;11.476;2024-03-29T06:04:56;4.45;;;1.55;;
49488;SDS011;35382;51.484;11.476;2024-03-29T06:07:21;3.40;;;1.20;;
49488;SDS011;35382;51.484;11.476;2024-03-29T06:09:47;3.85;;;1.15;;
49488;SDS011;35382;51.484;11.476;2024-03-29T06:12:12;3.38;;;1.13;;
49488;SDS011;35382;51.484;11.476;2024-03-29T06:14:40;3.42;;;1.40;;
49488;SDS011;35382;51.484;11.476;2024-03-29T06:17:06;3.75;;;1.20;;
49488;SDS011;35382;51.484;11.476;2024-03-29T06:19:31;3.50;;;1.05;;
49488;SDS011;35382;51.484;11.476;2024-03-29T06:21:56;2.97;;;1.00;;
49488;SDS011;35382;51.484;11.476;2024-03-29T06:24:25;3.65;;;1.00;;
49488;SDS011;35382;51.484;11.476;2024-03-29T06:26:50;6.05;;;1.05;;
49488;SDS011;35382;51.484;11.476;2024-03-29T06:29:15;2.90;;;0.90;;
49488;SDS011;35382;51.484;11.476;2024-03-29T06:31:41;3.25;;;1.33;;
49488;SDS011;35382;51.484;11.476;2024-03-29T06:34:06;3.40;;;0.98;;
49488;SDS011;35382;51.484;11.476;2024-03-29T06:36:31;3.60;;;1.02;;
49488;SDS011;35382;51.484;11.476;2024-03-29T06:38:57;3.75;;;0.85;;
49488;SDS011;35382;51.484;11.476;2024-03-29T06:41:22;4.05;;;1.10;;
49488;SDS011;35382;51.484;11.476;2024-03-29T06:43:47;3.13;;;0.80;;
49488;SDS011;35382;51.484;11.476;2024-03-29T06:46:13;2.80;;;1.10;;
49488;SDS011;35382;51.484;11.476;2024-03-29T06:48:39;4.80;;;1.65;;
49488;SDS011;35382;51.484;11.476;2024-03-29T06:51:04;3.90;;;1.40;;
49488;SDS011;35382;51.484;11.476;2024-03-29T06:53:30;4.15;;;1.25;;
49488;SDS011;35382;51.484;11.476;2024-03-29T06:55:55;3.95;;;1.30;;
49488;SDS011;35382;51.484;11.476;2024-03-29T06:58:21;3.50;;;1.00;;
49488;SDS011;35382;51.484;11.476;2024-03-29T07:00:49;2.50;;;0.85;;
49488;SDS011;35382;51.484;11.476;2024-03-29T07:03:15;3.55;;;1.00;;
49488;SDS011;35382;51.484;11.476;2024-03-29T07:05:41;1.77;;;0.90;;
49488;SDS011;35382;51.484;11.476;2024-03-29T07:08:06;1.65;;;0.90;;
49488;SDS011;35382;51.484;11.476;2024-03-29T07:10:32;3.53;;;0.98;;
49488;SDS011;35382;51.484;11.476;2024-03-29T07:12:57;3.47;;;1.20;;
49488;SDS011;35382;51.484;11.476;2024-03-29T07:15:23;2.88;;;1.10;;
49488;SDS011;35382;51.484;11.476;2024-03-29T07:17:48;4.32;;;1.30;;
49488;SDS011;35382;51.484;11.476;2024-03-29T07:20:15;2.90;;;1.15;;
49488;SDS011;35382;51.484;11.476;2024-03-29T07:22:41;2.60;;;1.20;;
49488;SDS011;35382;51.484;11.476;2024-03-29T07:25:06;2.30;;;1.38;;
49488;SDS011;35382;51.484;11.476;2024-03-29T07:27:32;3.38;;;1.17;;
49488;SDS011;35382;51.484;11.476;2024-03-29T07:29:59;3.28;;;1.30;;
49488;SDS011;35382;51.484;11.476;2024-03-29T07:32:24;5.70;;;1.40;;
49488;SDS011;35382;51.484;11.476;2024-03-29T07:34:50;7.07;;;1.35;;
49488;SDS011;35382;51.484;11.476;2024-03-29T07:37:15;2.35;;;1.00;;
49488;SDS011;35382;51.484;11.476;2024-03-29T07:39:41;2.08;;;1.00;;
49488;SDS011;35382;51.484;11.476;2024-03-29T07:42:06;2.65;;;1.00;;
49488;SDS011;35382;51.484;11.476;2024-03-29T07:44:32;2.90;;;0.80;;
49488;SDS011;35382;51.484;11.476;2024-03-29T07:46:58;1.98;;;0.75;;
49488;SDS011;35382;51.484;11.476;2024-03-29T07:49:23;2.53;;;0.80;;
49488;SDS011;35382;51.484;11.476;2024-03-29T07:51:48;3.15;;;0.80;;
49488;SDS011;35382;51.484;11.476;2024-03-29T07:54:14;3.80;;;1.00;;
49488;SDS011;35382;51.484;11.476;2024-03-29T07:56:39;1.95;;;1.00;;
49488;SDS011;35382;51.484;11.476;2024-03-29T07:59:04;2.35;;;0.90;;
49488;SDS011;35382;51.484;11.476;2024-03-29T08:01:30;4.03;;;1.15;;
49488;SDS011;35382;51.484;11.476;2024-03-29T08:03:55;3.63;;;0.90;;
49488;SDS011;35382;51.484;11.476;2024-03-29T08:06:20;2.30;;;0.90;;
49488;SDS011;35382;51.484;11.476;2024-03-29T08:08:46;3.75;;;1.10;;
49488;SDS011;35382;51.484;11.476;2024-03-29T08:11:11;2.78;;;1.60;;
49488;SDS011;35382;51.484;11.476;2024-03-29T08:13:38;2.35;;;0.90;;
49488;SDS011;35382;51.484;11.476;2024-03-29T08:16:04;3.67;;;1.20;;
49488;SDS011;35382;51.484;11.476;2024-03-29T08:18:30;2.70;;;0.90;;
49488;SDS011;35382;51.484;11.476;2024-03-29T08:20:56;3.10;;;1.10;;
49488;SDS011;35382;51.484;11.476;2024-03-29T08:23:21;3.08;;;1.65;;
49488;SDS011;35382;51.484;11.476;2024-03-29T08:25:47;3.83;;;1.20;;
49488;SDS011;35382;51.484;11.476;2024-03-29T08:28:12;2.15;;;1.10;;
49488;SDS011;35382;51.484;11.476;2024-03-29T08:30:40;1.90;;;1.00;;
49488;SDS011;35382;51.484;11.476;2024-03-29T08:33:05;4.18;;;1.25;;
49488;SDS011;35382;51.484;11.476;2024-03-29T08:35:34;3.80;;;1.45;;
49488;SDS011;35382;51.484;11.476;2024-03-29T08:37:59;3.78;;;1.08;;
49488;SDS011;35382;51.484;11.476;2024-03-29T08:40:27;4.28;;;1.50;;
49488;SDS011;35382;51.484;11.476;2024-03-29T08:42:53;5.43;;;1.45;;
49488;SDS011;35382;51.484;11.476;2024-03-29T08:45:18;3.53;;;1.20;;
49488;SDS011;35382;51.484;11.476;2024-03-29T08:47:44;3.55;;;1.15;;
49488;SDS011;35382;51.484;11.476;2024-03-29T08:50:09;2.38;;;1.05;;
49488;SDS011;35382;51.484;11.476;2024-03-29T08:52:34;2.63;;;1.10;;
49488;SDS011;35382;51.484;11.476;2024-03-29T08:55:00;4.75;;;1.30;;
49488;SDS011;35382;51.484;11.476;2024-03-29T08:57:25;3.28;;;1.08;;
49488;SDS011;35382;51.484;11.476;2024-03-29T08:59:50;2.80;;;1.00;;
49488;SDS011;35382;51.484;11.476;2024-03-29T09:02:16;2.70;;;0.98;;
49488;SDS011;35382;51.484;11.476;2024-03-29T09:04:41;1.77;;;0.90;;
49488;SDS011;35382;51.484;11.476;2024-03-29T09:07:07;2.60;;;0.90;;
49488;SDS011;35382;51.484;11.476;2024-03-29T09:09:32;2.45;;;0.82;;
49488;SDS011;35382;51.484;11.476;2024-03-29T09:11:57;1.70;;;0.90;;
49488;SDS011;35382;51.484;11.476;2024-03-29T09:14:23;2.92;;;0.90;;
49488;SDS011;35382;51.484;11.476;2024-03-29T09:16:48;1.95;;;0.88;;
49488;SDS011;35382;51.484;11.476;2024-03-29T09:19:14;1.70;;;0.77;;
49488;SDS011;35382;51.484;11.476;2024-03-29T09:21:39;2.00;;;0.80;;
49488;SDS011;35382;51.484;11.476;2024-03-29T09:24:05;1.67;;;0.70;;
49488;SDS011;35382;51.484;11.476;2024-03-29T09:26:31;2.05;;;0.82;;
49488;SDS011;35382;51.484;11.476;2024-03-29T09:28:56;1.20;;;0.68;;
49488;SDS011;35382;51.484;11.476;2024-03-29T09:31:22;1.42;;;0.70;;
49488;SDS011;35382;51.484;11.476;2024-03-29T09:33:47;3.72;;;0.77;;
49488;SDS011;35382;51.484;11.476;2024-03-29T09:36:12;0.80;;;0.50;;
49488;SDS011;35382;51.484;11.476;2024-03-29T09:38:38;1.25;;;0.52;;
49488;SDS011;35382;51.484;11.476;2024-03-29T09:41:06;0.95;;;0.70;;
49488;SDS011;35382;51.484;11.476;2024-03-29T09:43:38;0.70;;;0.45;;
49488;SDS011;35382;51.484;11.476;2024-03-29T09:46:06;0.77;;;0.40;;
49488;SDS011;35382;51.484;11.476;2024-03-29T09:48:33;2.83;;;0.60;;
49488;SDS011;35382;51.484;11.476;2024-03-29T09:53:26;1.80;;;0.47;;
49488;SDS011;35382;51.484;11.476;2024-03-29T09:55:52;1.77;;;0.47;;
49488;SDS011;35382;51.484;11.476;2024-03-29T09:58:17;1.27;;;0.50;;
49488;SDS011;35382;51.484;11.476;2024-03-29T10:00:43;0.65;;;0.50;;
49488;SDS011;35382;51.484;11.476;2024-03-29T10:03:08;0.50;;;0.50;;
49488;SDS011;35382;51.484;11.476;2024-03-29T10:05:35;0.70;;;0.32;;
49488;SDS011;35382;51.484;11.476;2024-03-29T10:08:01;1.60;;;0.50;;
49488;SDS011;35382;51.484;11.476;2024-03-29T10:10:29;0.95;;;0.50;;
49488;SDS011;35382;51.484;11.476;2024-03-29T10:12:55;1.42;;;0.52;;
49488;SDS011;35382;51.484;11.476;2024-03-29T10:15:21;1.92;;;0.60;;
49488;SDS011;35382;51.484;11.476;2024-03-29T10:17:49;1.13;;;0.50;;
49488;SDS011;35382;51.484;11.476;2024-03-29T10:20:18;1.15;;;0.50;;
49488;SDS011;35382;51.484;11.476;2024-03-29T10:22:44;0.82;;;0.60;;
49488;SDS011;35382;51.484;11.476;2024-03-29T10:25:11;2.00;;;0.55;;
49488;SDS011;35382;51.484;11.476;2024-03-29T10:30:04;1.17;;;0.37;;
49488;SDS011;35382;51.484;11.476;2024-03-29T10:34:56;0.60;;;0.50;;
49488;SDS011;35382;51.484;11.476;2024-03-29T10:37:21;2.22;;;0.77;;
49488;SDS011;35382;51.484;11.476;2024-03-29T10:39:47;1.15;;;0.60;;
49488;SDS011;35382;51.484;11.476;2024-03-29T10:42:12;1.88;;;1.05;;
49488;SDS011;35382;51.484;11.476;2024-03-29T10:44:39;0.93;;;0.60;;
49488;SDS011;35382;51.484;11.476;2024-03-29T10:47:05;1.70;;;0.70;;
49488;SDS011;35382;51.484;11.476;2024-03-29T10:49:31;2.72;;;0.60;;
49488;SDS011;35382;51.484;11.476;2024-03-29T10:51:58;3.13;;;0.70;;
49488;SDS011;35382;51.484;11.476;2024-03-29T10:54:24;1.35;;;0.65;;
49488;SDS011;35382;51.484;11.476;2024-03-29T10:56:52;1.25;;;0.50;;
49488;SDS011;35382;51.484;11.476;2024-03-29T10:59:41;0.82;;;0.57;;
49488;SDS011;35382;51.484;11.476;2024-03-29T11:02:14;0.82;;;0.50;;
49488;SDS011;35382;51.484;11.476;2024-03-29T11:05:04;2.45;;;0.60;;
49488;SDS011;35382;51.484;11.476;2024-03-29T11:07:34;2.05;;;0.70;;
49488;SDS011;35382;51.484;11.476;2024-03-29T11:10:04;1.38;;;0.60;;
49488;SDS011;35382;51.484;11.476;2024-03-29T11:12:30;1.05;;;0.52;;
49488;SDS011;35382;51.484;11.476;2024-03-29T11:15:06;2.15;;;0.80;;
49488;SDS011;35382;51.484;11.476;2024-03-29T11:17:40;2.05;;;0.60;;
49488;SDS011;35382;51.484;11.476;2024-03-29T11:20:06;1.35;;;0.63;;
49488;SDS011;35382;51.484;11.476;2024-03-29T11:22:32;1.48;;;0.60;;
49488;SDS011;35382;51.484;11.476;2024-03-29T11:25:00;1.55;;;0.65;;
49488;SDS011;35382;51.484;11.476;2024-03-29T11:27:26;2.30;;;1.00;;
49488;SDS011;35382;51.484;11.476;2024-03-29T11:29:52;1.73;;;0.70;;
49488;SDS011;35382;51.484;11.476;2024-03-29T11:32:36;2.20;;;0.60;;
49488;SDS011;35382;51.484;11.476;2024-03-29T11:35:02;1.85;;;0.65;;
49488;SDS011;35382;51.484;11.476;2024-03-29T11:37:31;2.05;;;0.70;;
49488;SDS011;35382;51.484;11.476;2024-03-29T11:39:58;1.73;;;0.90;;
49488;SDS011;35382;51.484;11.476;2024-03-29T11:45:09;1.85;;;0.75;;
49488;SDS011;35382;51.484;11.476;2024-03-29T11:47:34;1.85;;;0.75;;
49488;SDS011;35382;51.484;11.476;2024-03-29T11:50:00;1.23;;;0.70;;
49488;SDS011;35382;51.484;11.476;2024-03-29T11:52:26;2.83;;;0.95;;
49488;SDS011;35382;51.484;11.476;2024-03-29T11:54:53;1.77;;;0.60;;
49488;SDS011;35382;51.484;11.476;2024-03-29T11:57:21;2.42;;;0.80;;
49488;SDS011;35382;51.484;11.476;2024-03-29T11:59:46;2.60;;;0.80;;
49488;SDS011;35382;51.484;11.476;2024-03-29T12:02:13;2.38;;;0.90;;
49488;SDS011;35382;51.484;11.476;2024-03-29T12:04:39;1.80;;;0.60;;
49488;SDS011;35382;51.484;11.476;2024-03-29T12:07:08;2.88;;;0.75;;
49488;SDS011;35382;51.484;11.476;2024-03-29T12:09:33;2.42;;;0.70;;
49488;SDS011;35382;51.484;11.476;2024-03-29T12:11:59;1.35;;;0.60;;
49488;SDS011;35382;51.484;11.476;2024-03-29T12:14:24;3.10;;;0.70;;
49488;SDS011;35382;51.484;11.476;2024-03-29T12:16:49;1.77;;;0.60;;
49488;SDS011;35382;51.484;11.476;2024-03-29T12:19:21;2.83;;;0.60;;
49488;SDS011;35382;51.484;11.476;2024-03-29T12:21:50;1.63;;;0.75;;
49488;SDS011;35382;51.484;11.476;2024-03-29T12:24:16;1.13;;;0.60;;
49488;SDS011;35382;51.484;11.476;2024-03-29T12:26:42;2.20;;;0.68;;
49488;SDS011;35382;51.484;11.476;2024-03-29T12:29:07;2.15;;;0.60;;
49488;SDS011;35382;51.484;11.476;2024-03-29T12:31:33;1.10;;;0.50;;
49488;SDS011;35382;51.484;11.476;2024-03-29T12:33:58;2.58;;;0.70;;
49488;SDS011;35382;51.484;11.476;2024-03-29T12:36:24;1.60;;;0.68;;
49488;SDS011;35382;51.484;11.476;2024-03-29T12:38:50;1.70;;;0.60;;
49488;SDS011;35382;51.484;11.476;2024-03-29T12:41:15;1.88;;;0.70;;
49488;SDS011;35382;51.484;11.476;2024-03-29T12:43:40;1.20;;;0.95;;
49488;SDS011;35382;51.484;11.476;2024-03-29T12:46:06;2.97;;;0.70;;
49488;SDS011;35382;51.484;11.476;2024-03-29T12:48:32;3.63;;;0.80;;
49488;SDS011;35382;51.484;11.476;2024-03-29T12:51:00;1.50;;;0.57;;
49488;SDS011;35382;51.484;11.476;2024-03-29T12:53:25;2.33;;;0.80;;
49488;SDS011;35382;51.484;11.476;2024-03-29T12:55:53;1.90;;;0.60;;
49488;SDS011;35382;51.484;11.476;2024-03-29T12:58:18;1.55;;;0.70;;
49488;SDS011;35382;51.484;11.476;2024-03-29T13:00:44;2.15;;;0.68;;
49488;SDS011;35382;51.484;11.476;2024-03-29T13:03:10;2.97;;;1.00;;
49488;SDS011;35382;51.484;11.476;2024-03-29T13:05:36;1.55;;;0.75;;
49488;SDS011;35382;51.484;11.476;2024-03-29T13:08:07;1.42;;;0.80;;
49488;SDS011;35382;51.484;11.476;2024-03-29T13:10:35;2.38;;;0.80;;
49488;SDS011;35382;51.484;11.476;2024-03-29T13:13:00;1.38;;;0.75;;
49488;SDS011;35382;51.484;11.476;2024-03-29T13:15:26;1.95;;;1.00;;
49488;SDS011;35382;51.484;11.476;2024-03-29T13:17:53;2.22;;;0.70;;
49488;SDS011;35382;51.484;11.476;2024-03-29T13:20:19;1.83;;;0.80;;
49488;SDS011;35382;51.484;11.476;2024-03-29T13:22:45;2.08;;;0.75;;
49488;SDS011;35382;51.484;11.476;2024-03-29T13:25:12;2.20;;;0.90;;
49488;SDS011;35382;51.484;11.476;2024-03-29T13:27:38;2.13;;;0.80;;
49488;SDS011;35382;51.484;11.476;2024-03-29T13:30:05;1.52;;;0.70;;
49488;SDS011;35382;51.484;11.476;2024-03-29T13:32:33;1.33;;;0.80;;
49488;SDS011;35382;51.484;11.476;2024-03-29T13:34:59;1.85;;;0.95;;
49488;SDS011;35382;51.484;11.476;2024-03-29T13:37:25;2.97;;;1.15;;
49488;SDS011;35382;51.484;11.476;2024-03-29T13:39:51;2.08;;;1.00;;
49488;SDS011;35382;51.484;11.476;2024-03-29T13:42:16;1.65;;;0.85;;
49488;SDS011;35382;51.484;11.476;2024-03-29T13:44:41;1.20;;;0.60;;
49488;SDS011;35382;51.484;11.476;2024-03-29T13:47:07;1.48;;;0.90;;
49488;SDS011;35382;51.484;11.476;2024-03-29T13:49:32;0.75;;;0.70;;
49488;SDS011;35382;51.484;11.476;2024-03-29T13:51:57;1.65;;;0.75;;
49488;SDS011;35382;51.484;11.476;2024-03-29T13:54:23;2.78;;;1.25;;
49488;SDS011;35382;51.484;11.476;2024-03-29T13:56:48;1.73;;;0.90;;
49488;SDS011;35382;51.484;11.476;2024-03-29T13:59:13;2.20;;;1.00;;
49488;SDS011;35382;51.484;11.476;2024-03-29T14:01:39;1.10;;;0.80;;
49488;SDS011;35382;51.484;11.476;2024-03-29T14:04:04;1.80;;;0.88;;
49488;SDS011;35382;51.484;11.476;2024-03-29T14:06:29;2.20;;;1.02;;
49488;SDS011;35382;51.484;11.476;2024-03-29T14:08:55;2.67;;;1.20;;
49488;SDS011;35382;51.484;11.476;2024-03-29T14:14:48;2.60;;;1.17;;
49488;SDS011;35382;51.484;11.476;2024-03-29T14:17:14;3.08;;;1.40;;
49488;SDS011;35382;51.484;11.476;2024-03-29T14:19:39;2.58;;;1.10;;
49488;SDS011;35382;51.484;11.476;2024-03-29T14:22:05;3.30;;;1.10;;
49488;SDS011;35382;51.484;11.476;2024-03-29T14:24:31;1.55;;;1.00;;
49488;SDS011;35382;51.484;11.476;2024-03-29T14:26:57;3.55;;;1.40;;
49488;SDS011;35382;51.484;11.476;2024-03-29T14:29:23;3.58;;;1.42;;
49488;SDS011;35382;51.484;11.476;2024-03-29T14:31:48;1.60;;;1.10;;
49488;SDS011;35382;51.484;11.476;2024-03-29T14:34:14;1.83;;;1.30;;
49488;SDS011;35382;51.484;11.476;2024-03-29T14:36:40;3.08;;;1.27;;
49488;SDS011;35382;51.484;11.476;2024-03-29T14:39:05;2.60;;;1.70;;